Time;durP1;ratioP1;P1;durP2;ratioP2;P2;SDS_P1;SDS_P2;PMS_P1;PMS_P2;Temp;Humidity;BMP_temperature;BMP_pressure;BME280_temperature;BME280_humidity;BME280_pressure;Samples;Min_cycle;Max_cycle;Signal;HPM_P1;HPM_P2
2022/04/23 00:01:38;;;;;;;3.00;2.10;;;17.60;47.20;;;;;;5092731;28;20099;-67
2022/04/23 00:04:04;;;;;;;4.10;2.50;;;17.60;47.30;;;;;;5091672;28;20086;-67
2022/04/23 00:06:32;;;;;;;3.65;2.60;;;17.60;47.30;;;;;;5092581;28;20036;-67
2022/04/23 00:08:58;;;;;;;3.22;2.30;;;17.60;47.40;;;;;;5091184;28;20044;-67
2022/04/23 00:11:24;;;;;;;3.55;2.92;;;17.60;47.40;;;;;;5092625;28;20036;-68
2022/04/23 00:13:49;;;;;;;3.53;2.47;;;17.60;47.40;;;;;;5108050;28;20040;-67
2022/04/23 00:16:15;;;;;;;2.80;2.35;;;17.60;47.50;;;;;;5108049;28;20043;-67
2022/04/23 00:18:42;;;;;;;3.63;2.67;;;17.60;47.60;;;;;;5091128;28;20121;-67
2022/04/23 00:21:08;;;;;;;3.05;2.72;;;17.60;47.60;;;;;;5092479;28;20040;-69
2022/04/23 00:23:34;;;;;;;3.45;3.15;;;17.60;47.70;;;;;;5108231;28;20051;-69
2022/04/23 00:26:01;;;;;;;3.33;3.03;;;17.50;47.70;;;;;;5090992;28;20487;-68
2022/04/23 00:28:27;;;;;;;3.67;3.30;;;17.50;47.70;;;;;;5092246;28;20071;-67
2022/04/23 00:30:52;;;;;;;3.00;2.53;;;17.50;47.80;;;;;;5090782;28;20040;-68
2022/04/23 00:33:19;;;;;;;4.15;3.35;;;17.50;47.80;;;;;;5107936;28;20039;-67
2022/04/23 00:35:45;;;;;;;3.70;3.20;;;17.50;47.90;;;;;;5107922;28;20476;-67
2022/04/23 00:38:11;;;;;;;3.05;2.75;;;17.50;47.90;;;;;;5108150;28;20154;-67
2022/04/23 00:40:40;;;;;;;4.07;3.47;;;17.50;48.00;;;;;;5108113;28;20369;-67
2022/04/23 00:43:10;;;;;;;3.83;3.47;;;17.50;48.00;;;;;;5090888;28;20071;-67
2022/04/23 00:45:36;;;;;;;3.63;3.33;;;17.50;48.10;;;;;;5090890;28;20055;-67
2022/04/23 00:48:03;;;;;;;5.28;3.15;;;17.40;48.10;;;;;;5107512;28;20052;-68
2022/04/23 00:50:29;;;;;;;4.53;4.13;;;17.40;48.10;;;;;;5092156;28;20126;-68
2022/04/23 00:53:01;;;;;;;5.55;3.90;;;17.40;48.20;;;;;;5090658;28;20040;-68
2022/04/23 00:55:28;;;;;;;3.85;3.55;;;17.40;48.20;;;;;;5090686;28;20067;-68
2022/04/23 00:57:53;;;;;;;4.75;3.80;;;17.40;48.20;;;;;;5107600;28;20089;-67
2022/04/23 01:00:19;;;;;;;4.47;3.95;;;17.40;48.30;;;;;;5091712;28;20043;-68
2022/04/23 01:02:45;;;;;;;4.25;3.85;;;17.40;48.30;;;;;;5107871;28;20396;-68
2022/04/23 01:05:12;;;;;;;4.30;3.92;;;17.30;48.30;;;;;;5107446;28;20502;-68
2022/04/23 01:07:43;;;;;;;5.63;4.15;;;17.30;48.30;;;;;;5091846;28;20044;-68
2022/04/23 01:10:09;;;;;;;;;;;17.30;48.40;;;;;;5092265;28;20076;-67
2022/04/23 01:12:36;;;;;;;3.90;3.50;;;17.30;48.60;;;;;;5090839;28;19974;-63
2022/04/23 01:15:07;;;;;;;4.72;3.97;;;17.30;48.40;;;;;;5090657;28;20040;-68
2022/04/23 01:17:33;;;;;;;4.40;4.00;;;17.30;48.50;;;;;;5090716;28;20472;-67
2022/04/23 01:20:06;;;;;;;4.65;4.15;;;17.30;48.50;;;;;;5091719;28;20104;-68
2022/04/23 01:22:33;;;;;;;4.43;4.00;;;17.30;48.60;;;;;;5091732;28;20166;-67
2022/04/23 01:25:00;;;;;;;3.38;3.08;;;17.30;48.60;;;;;;5090487;28;20088;-68
2022/04/23 01:27:29;;;;;;;4.20;3.80;;;17.20;48.60;;;;;;5090224;28;20043;-68
2022/04/23 01:29:56;;;;;;;4.20;3.80;;;17.30;48.70;;;;;;5090582;28;20046;-68
2022/04/23 01:32:22;;;;;;;5.80;4.85;;;17.30;48.70;;;;;;5091536;28;20039;-68
2022/04/23 01:34:49;;;;;;;4.25;3.85;;;17.30;48.80;;;;;;5090586;28;20387;-67
2022/04/23 01:37:17;;;;;;;3.88;3.58;;;17.20;48.80;;;;;;5090500;28;20055;-68
2022/04/23 01:39:44;;;;;;;4.90;4.50;;;17.20;48.80;;;;;;5107533;28;20441;-68
2022/04/23 01:42:10;;;;;;;4.03;3.63;;;17.20;48.80;;;;;;5090019;28;20036;-68
2022/04/23 01:44:35;;;;;;;4.10;3.45;;;17.20;48.80;;;;;;5090282;28;20169;-64
2022/04/23 01:47:04;;;;;;;4.13;3.83;;;17.20;48.80;;;;;;5107089;28;20086;-67
2022/04/23 01:49:29;;;;;;;5.75;4.22;;;17.20;48.90;;;;;;5091486;28;20131;-67
2022/04/23 01:51:55;;;;;;;5.57;4.53;;;17.20;48.90;;;;;;5107017;28;20120;-68
2022/04/23 01:54:24;;;;;;;3.88;3.47;;;17.10;48.80;;;;;;5091419;28;20032;-67
2022/04/23 01:56:49;;;;;;;4.25;3.72;;;17.10;48.90;;;;;;5094851;28;20122;-65
2022/04/23 01:59:18;;;;;;;3.97;3.67;;;17.10;48.90;;;;;;5094055;28;20124;-68
2022/04/23 02:01:43;;;;;;;5.28;4.22;;;17.00;48.90;;;;;;5093894;28;20499;-67
2022/04/23 02:04:09;;;;;;;4.13;3.83;;;17.10;48.90;;;;;;5093694;28;20047;-67
2022/04/23 02:06:35;;;;;;;4.22;3.90;;;17.10;48.90;;;;;;5110568;28;20036;-68
2022/04/23 02:09:03;;;;;;;4.13;3.40;;;17.10;49.00;;;;;;5094733;28;20096;-67
2022/04/23 02:11:31;;;;;;;3.95;3.55;;;17.10;49.00;;;;;;5110508;28;20624;-67
2022/04/23 02:13:57;;;;;;;4.13;3.75;;;17.10;49.10;;;;;;5093493;28;20036;-67
2022/04/23 02:16:23;;;;;;;4.28;3.90;;;17.00;49.00;;;;;;5094683;28;20467;-67
2022/04/23 02:18:48;;;;;;;2.92;2.70;;;17.10;49.10;;;;;;5094578;28;20090;-68
2022/04/23 02:21:14;;;;;;;3.72;3.35;;;17.10;49.10;;;;;;5093383;28;20050;-67
2022/04/23 02:23:40;;;;;;;3.95;3.53;;;17.00;49.10;;;;;;5093238;28;20036;-68
2022/04/23 02:26:06;;;;;;;3.53;3.22;;;17.00;49.10;;;;;;5093554;28;20064;-67
2022/04/23 02:28:32;;;;;;;3.42;3.13;;;17.00;49.10;;;;;;5093128;28;20036;-67
2022/04/23 02:30:58;;;;;;;4.38;3.97;;;17.00;49.10;;;;;;5094388;28;20036;-67
2022/04/23 02:33:24;;;;;;;4.47;4.10;;;17.00;49.10;;;;;;5094339;28;20498;-67
2022/04/23 02:35:50;;;;;;;4.50;4.10;;;17.00;49.10;;;;;;5076208;28;20101;-67
2022/04/23 02:38:17;;;;;;;3.65;3.22;;;17.00;49.20;;;;;;5093224;28;20044;-67
2022/04/23 02:40:43;;;;;;;3.53;3.22;;;17.00;49.20;;;;;;5094327;28;20479;-67
2022/04/23 02:43:12;;;;;;;4.18;3.78;;;17.00;49.20;;;;;;5110082;28;20047;-68
2022/04/23 02:45:39;;;;;;;5.07;4.18;;;17.00;49.20;;;;;;5094146;28;20039;-65
2022/04/23 02:48:05;;;;;;;4.85;4.13;;;16.90;49.20;;;;;;5092739;28;20408;-68
2022/04/23 02:53:11;;;;;;;3.97;3.58;;;17.00;49.20;;;;;;5140817;27;346849;-65
2022/04/23 02:55:38;;;;;;;4.13;3.70;;;16.90;49.20;;;;;;5132318;27;20490;-65
2022/04/23 02:58:07;;;;;;;3.28;2.97;;;16.90;49.20;;;;;;5132355;27;20054;-66
2022/04/23 03:00:34;;;;;;;3.03;2.70;;;16.90;49.20;;;;;;5132291;27;20043;-67
2022/04/23 03:03:00;;;;;;;3.58;3.28;;;16.90;49.30;;;;;;5132273;27;20390;-67
2022/04/23 03:05:26;;;;;;;3.53;3.22;;;16.90;49.30;;;;;;5132184;27;20049;-68
2022/04/23 03:07:53;;;;;;;3.47;3.10;;;16.90;49.30;;;;;;5150683;27;20034;-67
2022/04/23 03:10:19;;;;;;;3.60;3.30;;;16.90;49.30;;;;;;5132050;27;20054;-67
2022/04/23 03:12:47;;;;;;;3.97;3.50;;;16.90;49.30;;;;;;5150585;27;20121;-67
2022/04/23 03:15:16;;;;;;;3.85;3.15;;;16.80;49.30;;;;;;5131379;27;20470;-68
2022/04/23 03:17:43;;;;;;;3.25;2.95;;;16.90;49.30;;;;;;5150702;27;20038;-68
2022/04/23 03:20:10;;;;;;;4.63;3.50;;;16.90;49.40;;;;;;5150425;27;20047;-67
2022/04/23 03:22:37;;;;;;;3.75;3.45;;;16.80;49.30;;;;;;5131920;27;20043;-67
2022/04/23 03:25:03;;;;;;;3.45;3.15;;;16.80;49.30;;;;;;5131676;27;20046;-68
2022/04/23 03:27:30;;;;;;;5.07;3.40;;;16.80;49.30;;;;;;5132080;27;20054;-67
2022/04/23 03:29:58;;;;;;;3.63;3.17;;;16.80;49.40;;;;;;5150428;27;20046;-67
2022/04/23 03:32:25;;;;;;;3.55;3.20;;;16.80;49.40;;;;;;5150211;27;20172;-69
2022/04/23 03:34:50;;;;;;;3.88;3.10;;;16.80;49.40;;;;;;5131906;27;20066;-67
2022/04/23 03:37:16;;;;;;;3.30;2.83;;;16.80;49.40;;;;;;5131879;27;20035;-68
2022/04/23 03:39:42;;;;;;;3.15;2.85;;;16.80;49.40;;;;;;5131756;27;20420;-67
2022/04/23 03:42:07;;;;;;;3.10;2.80;;;16.80;49.40;;;;;;5131812;27;20035;-68
2022/04/23 03:44:33;;;;;;;3.97;3.55;;;16.70;49.40;;;;;;5131492;27;20062;-68
2022/04/23 03:47:01;;;;;;;3.40;3.03;;;16.70;49.40;;;;;;5131433;27;20292;-66
2022/04/23 03:49:28;;;;;;;3.05;2.83;;;16.70;50.10;;;;;;5131444;27;20050;-69
2022/04/23 03:51:54;;;;;;;2.92;2.63;;;16.70;49.40;;;;;;5131052;27;20043;-67
2022/04/23 03:54:20;;;;;;;4.57;3.10;;;16.70;49.40;;;;;;5131478;27;20057;-67
2022/04/23 03:56:46;;;;;;;4.55;3.53;;;16.70;49.50;;;;;;5132011;27;20393;-67
2022/04/23 03:59:13;;;;;;;3.40;3.10;;;16.70;49.40;;;;;;5150423;27;20092;-66
2022/04/23 04:01:38;;;;;;;2.92;2.67;;;16.70;49.50;;;;;;5130793;27;20117;-67
2022/04/23 04:04:05;;;;;;;3.40;3.10;;;16.70;49.50;;;;;;5119608;27;20069;-64
2022/04/23 04:06:30;;;;;;;3.42;3.10;;;16.70;49.50;;;;;;5135769;27;20035;-64
2022/04/23 04:08:56;;;;;;;4.10;3.10;;;16.60;49.50;;;;;;5135738;27;20406;-67
2022/04/23 04:11:25;;;;;;;2.90;2.70;;;16.60;49.50;;;;;;5117071;27;20050;-67
2022/04/23 04:13:50;;;;;;;4.35;3.95;;;16.70;49.60;;;;;;5135668;27;20035;-67
2022/04/23 04:16:20;;;;;;;4.78;3.25;;;16.60;49.50;;;;;;5117321;27;20175;-67
2022/04/23 04:18:46;;;;;;;3.60;3.20;;;16.60;49.50;;;;;;5117367;27;20509;-67
2022/04/23 04:21:19;;;;;;;3.58;3.00;;;16.60;49.50;;;;;;5117203;27;20035;-67
2022/04/23 04:23:45;;;;;;;3.33;2.80;;;16.60;49.50;;;;;;5135499;27;20439;-67
2022/04/23 04:26:11;;;;;;;4.10;3.08;;;16.50;49.40;;;;;;5135397;27;20042;-66
2022/04/23 04:28:36;;;;;;;2.97;2.67;;;16.50;49.50;;;;;;5116902;27;20152;-67
2022/04/23 04:33:50;;;;;;;3.17;2.88;;;16.50;49.50;;;;;;5116496;27;20139;-67
2022/04/23 04:36:16;;;;;;;3.05;2.75;;;16.50;49.50;;;;;;5135252;27;20072;-67
2022/04/23 04:38:41;;;;;;;2.63;2.42;;;16.50;49.50;;;;;;5135095;27;20066;-67
2022/04/23 04:41:07;;;;;;;3.13;2.75;;;16.50;49.50;;;;;;5116794;27;20058;-67
2022/04/23 04:43:32;;;;;;;3.67;3.35;;;16.50;49.40;;;;;;5116955;27;20031;-68
2022/04/23 04:45:59;;;;;;;3.83;3.20;;;16.50;49.40;;;;;;5116600;27;20122;-67
2022/04/23 04:48:24;;;;;;;3.33;2.90;;;16.50;49.40;;;;;;5134994;27;20042;-67
2022/04/23 04:50:50;;;;;;;3.25;2.70;;;16.50;49.40;;;;;;5134922;27;20383;-67
2022/04/23 04:53:15;;;;;;;2.95;2.55;;;16.50;49.40;;;;;;5099124;27;20066;-67
2022/04/23 04:55:41;;;;;;;3.63;3.10;;;16.50;49.40;;;;;;5116440;27;20043;-68
2022/04/23 04:58:07;;;;;;;3.63;3.33;;;16.50;49.40;;;;;;5116297;27;20108;-68
2022/04/23 05:00:33;;;;;;;2.75;2.55;;;16.50;49.40;;;;;;5116420;27;20043;-68
2022/04/23 05:02:59;;;;;;;2.70;2.50;;;16.50;49.40;;;;;;5134718;27;20035;-64
2022/04/23 05:05:25;;;;;;;2.60;2.17;;;16.50;49.40;;;;;;5116304;27;20096;-67
2022/04/23 05:07:50;;;;;;;2.53;2.30;;;16.50;49.40;;;;;;5099394;27;20042;-67
2022/04/23 05:10:16;;;;;;;3.33;3.00;;;16.40;49.30;;;;;;5116407;27;20435;-67
2022/04/23 05:12:44;;;;;;;3.40;2.90;;;16.40;49.20;;;;;;5134522;27;20087;-68
2022/04/23 05:15:11;;;;;;;3.47;2.90;;;16.50;49.30;;;;;;5115261;27;20070;-67
2022/04/23 05:17:38;;;;;;;2.90;2.55;;;16.50;49.30;;;;;;5116237;27;20074;-69
2022/04/23 05:20:05;;;;;;;2.83;2.40;;;16.40;49.20;;;;;;5134408;27;20042;-67
2022/04/23 05:22:31;;;;;;;2.25;2.13;;;16.40;49.10;;;;;;5116183;27;20045;-67
2022/04/23 05:24:57;;;;;;;2.88;2.58;;;16.50;49.20;;;;;;5116088;27;20039;-69
2022/04/23 05:27:26;;;;;;;2.08;1.92;;;16.40;49.10;;;;;;5116108;27;20159;-66
2022/04/23 05:29:51;;;;;;;3.35;2.05;;;16.50;49.10;;;;;;5115777;27;20051;-68
2022/04/23 05:32:17;;;;;;;2.50;2.30;;;16.40;49.00;;;;;;5115696;27;20039;-66
2022/04/23 05:34:43;;;;;;;2.25;2.05;;;16.50;49.00;;;;;;5134468;27;20086;-67
2022/04/23 05:37:09;;;;;;;3.03;2.60;;;16.40;48.90;;;;;;5115874;27;20045;-67
2022/04/23 05:39:35;;;;;;;3.63;2.85;;;16.40;48.90;;;;;;5133915;27;20391;-68
2022/04/23 05:42:03;;;;;;;2.50;2.30;;;16.50;48.90;;;;;;5115572;27;20035;-68
2022/04/23 05:44:32;;;;;;;2.97;2.70;;;16.50;48.90;;;;;;5115457;27;20455;-68
2022/04/23 05:46:58;;;;;;;2.28;2.08;;;16.40;48.80;;;;;;5133735;27;20078;-67
2022/04/23 05:49:27;;;;;;;2.45;2.25;;;16.50;48.80;;;;;;5115412;27;20506;-67
2022/04/23 05:51:53;;;;;;;2.63;2.38;;;16.50;48.70;;;;;;5115297;27;20059;-67
2022/04/23 05:54:18;;;;;;;2.85;2.65;;;16.50;48.70;;;;;;5098062;27;20452;-66
2022/04/23 05:56:45;;;;;;;2.67;2.47;;;16.40;48.70;;;;;;5115282;27;20127;-68
2022/04/23 05:59:10;;;;;;;2.45;2.25;;;16.50;48.70;;;;;;5115614;27;20070;-67
2022/04/23 06:01:36;;;;;;;3.22;2.85;;;16.40;48.70;;;;;;5115779;27;20446;-67
2022/04/23 06:04:02;;;;;;;3.65;2.83;;;16.40;48.60;;;;;;5115502;27;20039;-66
2022/04/23 06:06:27;;;;;;;2.60;2.40;;;16.40;48.50;;;;;;5115219;27;20042;-67
2022/04/23 06:08:53;;;;;;;3.17;2.55;;;16.40;48.40;;;;;;5114980;27;20043;-67
2022/04/23 06:11:18;;;;;;;3.22;2.95;;;16.40;48.40;;;;;;5115250;27;20031;-68
2022/04/23 06:13:44;;;;;;;3.65;3.35;;;16.40;48.40;;;;;;5133548;27;20451;-68
2022/04/23 06:16:10;;;;;;;2.80;2.60;;;16.40;48.30;;;;;;5114804;27;20088;-68
2022/04/23 06:18:35;;;;;;;3.15;2.85;;;16.50;48.30;;;;;;5115174;27;20068;-67
2022/04/23 06:21:01;;;;;;;3.97;2.55;;;16.40;48.20;;;;;;5114744;27;20459;-66
2022/04/23 06:23:27;;;;;;;2.70;2.50;;;16.50;48.20;;;;;;5115047;27;20042;-67
2022/04/23 06:25:52;;;;;;;3.03;2.72;;;16.40;48.20;;;;;;5114467;27;20051;-67
2022/04/23 06:28:18;;;;;;;3.30;3.00;;;16.50;48.10;;;;;;5114772;27;20054;-67
2022/04/23 06:30:43;;;;;;;3.42;3.13;;;16.50;48.00;;;;;;5114582;27;20039;-67
2022/04/23 06:33:12;;;;;;;3.83;3.53;;;16.50;48.00;;;;;;5132980;27;20047;-67
2022/04/23 06:35:37;;;;;;;3.30;3.00;;;16.50;48.00;;;;;;5114868;28;20118;-69
2022/04/23 06:38:03;;;;;;;3.60;3.30;;;16.50;47.90;;;;;;5114676;27;20058;-66
2022/04/23 06:40:29;;;;;;;3.58;3.30;;;16.40;47.70;;;;;;5114511;28;20088;-66
2022/04/23 06:42:54;;;;;;;3.17;2.90;;;16.50;47.80;;;;;;5133034;27;20046;-67
2022/04/23 06:45:20;;;;;;;3.55;3.00;;;16.50;47.70;;;;;;5114487;28;20043;-68
2022/04/23 06:47:46;;;;;;;4.78;2.83;;;16.50;47.60;;;;;;5114422;27;20117;-67
2022/04/23 06:50:11;;;;;;;3.90;3.60;;;16.50;47.60;;;;;;5114758;28;20042;-63
2022/04/23 06:52:37;;;;;;;3.55;2.85;;;16.50;48.40;;;;;;5114148;28;20509;-67
2022/04/23 06:55:04;;;;;;;3.45;3.15;;;16.50;47.60;;;;;;5114296;28;20118;-67
2022/04/23 06:57:30;;;;;;;4.35;3.42;;;16.50;47.60;;;;;;5132822;28;20496;-68
2022/04/23 07:00:00;;;;;;;4.13;3.72;;;16.50;48.40;;;;;;5114393;28;20043;-68
2022/04/23 07:02:26;;;;;;;3.60;3.30;;;16.50;47.70;;;;;;5132710;28;20498;-66
2022/04/23 07:04:51;;;;;;;3.53;3.22;;;16.50;47.70;;;;;;5114428;28;20054;-66
2022/04/23 07:07:17;;;;;;;3.70;3.40;;;16.50;47.60;;;;;;5114279;28;20048;-67
2022/04/23 07:09:42;;;;;;;3.20;3.00;;;16.50;47.60;;;;;;5114432;28;20066;-66
2022/04/23 07:12:09;;;;;;;3.63;3.33;;;16.50;47.50;;;;;;5132548;28;20390;-68
2022/04/23 07:14:34;;;;;;;3.70;3.40;;;16.50;47.50;;;;;;5114475;28;20382;-66
2022/04/23 07:17:00;;;;;;;4.47;4.07;;;16.50;47.50;;;;;;5114408;28;20125;-66
2022/04/23 07:19:26;;;;;;;4.85;4.13;;;16.50;47.40;;;;;;5132597;28;20073;-66
2022/04/23 07:21:51;;;;;;;4.57;4.18;;;16.50;47.40;;;;;;5114163;28;20047;-69
2022/04/23 07:24:17;;;;;;;4.78;3.75;;;16.50;47.40;;;;;;5113788;28;20294;-65
2022/04/23 07:26:43;;;;;;;4.60;3.88;;;16.50;47.30;;;;;;5132530;28;20035;-67
2022/04/23 07:29:10;;;;;;;6.35;4.25;;;16.60;47.40;;;;;;5132393;28;20071;-68
2022/04/23 07:31:37;;;;;;;4.25;3.92;;;16.60;47.40;;;;;;5114180;28;20413;-67
2022/04/23 07:39:38;;;;;;;4.03;3.63;;;16.50;47.30;;;;;;5117271;27;20085;-67
2022/04/23 07:42:05;;;;;;;4.45;4.05;;;16.60;47.50;;;;;;5136326;27;20087;-64
2022/04/23 07:44:31;;;;;;;4.82;4.40;;;16.60;47.30;;;;;;5118101;27;20428;-67
2022/04/23 07:46:57;;;;;;;4.50;4.15;;;16.60;47.30;;;;;;5118008;27;20035;-66
2022/04/23 07:49:22;;;;;;;4.45;4.05;;;16.60;47.30;;;;;;5117908;27;20046;-67
2022/04/23 07:51:49;;;;;;;6.30;4.90;;;16.60;47.10;;;;;;5116070;27;20478;-66
2022/04/23 07:54:15;;;;;;;4.88;4.47;;;16.60;47.10;;;;;;5127135;27;20059;-67
2022/04/23 07:56:41;;;;;;;4.75;4.10;;;16.60;47.00;;;;;;5127129;27;20390;-69
2022/04/23 07:59:08;;;;;;;5.03;4.60;;;16.70;47.00;;;;;;5114822;27;20039;-69
2022/04/23 08:01:33;;;;;;;5.20;4.80;;;16.60;46.90;;;;;;5112798;28;20039;-69
2022/04/23 08:04:02;;;;;;;4.45;4.13;;;16.70;47.00;;;;;;5114770;27;20330;-70
2022/04/23 08:06:28;;;;;;;4.90;4.45;;;16.70;47.00;;;;;;5117818;27;20040;-70
2022/04/23 08:08:53;;;;;;;5.13;4.50;;;16.80;47.00;;;;;;5127762;27;20043;-69
2022/04/23 08:11:22;;;;;;;4.70;4.22;;;16.80;46.80;;;;;;5126244;27;20411;-70
2022/04/23 08:13:49;;;;;;;6.45;4.65;;;16.80;46.60;;;;;;5121222;27;20093;-69
2022/04/23 08:16:15;;;;;;;5.50;4.50;;;16.90;46.60;;;;;;5130056;27;20058;-70
2022/04/23 08:18:41;;;;;;;5.47;4.80;;;16.90;46.60;;;;;;5133065;27;20035;-69
2022/04/23 08:21:07;;;;;;;4.68;4.18;;;16.90;46.40;;;;;;5133169;27;20066;-70
2022/04/23 08:23:33;;;;;;;5.00;4.50;;;17.00;46.30;;;;;;5128748;27;20124;-71
2022/04/23 08:26:02;;;;;;;5.03;4.43;;;16.90;46.30;;;;;;5129795;27;20031;-70
2022/04/23 08:31:15;;;;;;;4.38;3.97;;;17.00;45.90;;;;;;5127830;27;20055;-69
2022/04/23 08:34:12;;;;;;;5.00;4.47;;;17.00;45.80;;;;;;5122501;27;20151;-70
2022/04/23 08:39:07;;;;;;;5.38;4.18;;;17.10;45.90;;;;;;5145040;27;20151;-70
2022/04/23 08:41:35;;;;;;;5.82;4.45;;;17.10;45.70;;;;;;5127390;28;20291;-69
2022/04/23 08:44:05;;;;;;;5.72;4.47;;;17.20;45.70;;;;;;5128328;28;20035;-68
2022/04/23 08:49:16;;;;;;;5.38;4.57;;;17.20;45.70;;;;;;5103882;27;20142;-69
2022/04/23 08:51:48;;;;;;;5.25;3.97;;;17.20;45.60;;;;;;5068213;28;20051;-70
2022/04/23 08:54:17;;;;;;;7.45;4.53;;;17.30;45.50;;;;;;5068417;28;20036;-68
2022/04/23 08:56:45;;;;;;;6.47;4.47;;;17.20;46.20;;;;;;5066370;28;20050;-70
2022/04/23 08:59:13;;;;;;;7.15;4.57;;;17.40;45.40;;;;;;5100561;28;20041;-69
2022/04/23 09:01:40;;;;;;;5.63;3.45;;;17.40;45.30;;;;;;5067081;28;20119;-71
2022/04/23 09:04:06;;;;;;;5.28;4.78;;;17.50;45.10;;;;;;5067605;28;20068;-68
2022/04/23 09:06:42;;;;;;;8.35;5.07;;;17.60;45.10;;;;;;5066186;28;20427;-65
2022/04/23 09:14:36;;;;;;;4.45;3.95;;;17.80;44.60;;;;;;5146145;27;20138;-66
2022/04/23 09:25:32;;;;;;;4.35;3.22;;;18.40;43.60;;;;;;5124988;28;20051;-68
2022/04/23 09:30:54;;;;;;;3.75;3.42;;;18.50;43.30;;;;;;5145026;27;20139;-69
2022/04/23 09:33:27;;;;;;;5.03;3.80;;;18.60;43.10;;;;;;5130137;27;20031;-70
2022/04/23 09:38:32;;;;;;;4.63;4.22;;;18.60;43.00;;;;;;5122129;27;20141;-69
2022/04/23 09:41:15;;;;;;;3.90;3.42;;;18.80;42.60;;;;;;5088035;28;20048;-69
2022/04/23 09:43:42;;;;;;;3.70;3.40;;;18.90;42.40;;;;;;5087375;28;20033;-69
2022/04/23 09:46:09;;;;;;;3.78;3.47;;;18.90;42.30;;;;;;5087994;28;20036;-68
2022/04/23 09:48:38;;;;;;;4.90;3.75;;;19.00;42.20;;;;;;5087956;28;20041;-69
2022/04/23 09:51:04;;;;;;;4.03;3.53;;;19.00;42.00;;;;;;5087980;28;20072;-69
2022/04/23 09:53:30;;;;;;;4.57;4.00;;;19.00;41.90;;;;;;5087988;28;20047;-70
2022/04/23 09:55:59;;;;;;;4.97;3.75;;;19.00;41.90;;;;;;5087886;28;20407;-69
2022/04/23 09:58:29;;;;;;;4.25;3.53;;;19.00;41.80;;;;;;5087716;28;20040;-70
2022/04/23 10:00:56;;;;;;;4.60;4.20;;;19.00;41.80;;;;;;5088061;28;20036;-69
2022/04/23 10:03:28;;;;;;;4.10;3.80;;;19.00;41.80;;;;;;5121856;28;20033;-69
2022/04/23 10:05:54;;;;;;;4.30;3.90;;;19.10;41.90;;;;;;5088454;28;20369;-69
2022/04/23 10:08:24;;;;;;;4.50;4.10;;;19.10;41.80;;;;;;5087455;28;20044;-68
2022/04/23 10:13:33;;;;;;;5.53;3.70;;;19.10;41.80;;;;;;5170619;27;20307;-68
2022/04/23 10:16:02;;;;;;;4.13;3.72;;;19.00;41.60;;;;;;5150055;27;20043;-69
2022/04/23 10:18:28;;;;;;;4.68;3.65;;;19.00;41.60;;;;;;5149593;27;20042;-69
2022/04/23 10:20:57;;;;;;;6.10;4.32;;;19.00;41.70;;;;;;5149544;27;20051;-70
2022/04/23 10:28:48;;;;;;;5.65;4.00;;;19.00;41.80;;;;;;5191922;27;103029;-70
2022/04/23 10:31:16;;;;;;;4.55;4.13;;;19.00;41.80;;;;;;5173878;27;20129;-69
2022/04/23 10:33:46;;;;;;;5.13;4.20;;;19.00;41.70;;;;;;5173839;27;20065;-70
2022/04/23 10:36:13;;;;;;;4.97;4.47;;;19.00;41.80;;;;;;5192771;27;20061;-69
2022/04/23 10:38:45;;;;;;;4.55;4.15;;;19.00;41.80;;;;;;5174085;27;20034;-69
2022/04/23 10:41:13;;;;;;;3.70;3.38;;;18.90;41.70;;;;;;5173862;27;20042;-68
2022/04/23 10:43:47;;;;;;;4.50;4.10;;;18.90;41.80;;;;;;5192551;27;20072;-70
2022/04/23 10:49:26;;;;;;;4.43;3.90;;;18.90;42.00;;;;;;5129052;27;20586;-70
2022/04/23 10:51:54;;;;;;;4.70;3.88;;;18.90;41.90;;;;;;5129327;28;20048;-70
2022/04/23 10:54:42;;;;;;;4.50;4.10;;;18.80;41.90;;;;;;5129400;28;20444;-67
2022/04/23 10:57:11;;;;;;;5.10;4.18;;;18.80;42.00;;;;;;5129114;28;20051;-68
2022/04/23 11:13:44;;;;;;;5.32;4.30;;;18.60;42.30;;;;;;5190096;27;151338;-68
2022/04/23 11:18:52;;;;;;;3.80;3.50;;;18.60;42.30;;;;;;5190985;27;114240;-70
2022/04/23 11:21:26;;;;;;;4.50;4.10;;;18.60;42.30;;;;;;5173912;27;20046;-69
2022/04/23 11:23:53;;;;;;;4.65;4.15;;;18.50;42.20;;;;;;5174244;27;20109;-64
2022/04/23 11:26:22;;;;;;;4.10;3.70;;;18.60;42.30;;;;;;5192663;27;20026;-69
2022/04/23 11:28:57;;;;;;;4.20;3.78;;;18.50;42.40;;;;;;5174242;27;20057;-69
2022/04/23 11:31:23;;;;;;;4.32;3.92;;;18.50;42.40;;;;;;5173758;27;20097;-69
2022/04/23 11:33:52;;;;;;;4.20;3.80;;;18.50;42.40;;;;;;5174019;27;20045;-68
2022/04/23 11:36:19;;;;;;;4.28;3.88;;;18.50;42.40;;;;;;5166930;27;20473;-68
2022/04/23 11:38:45;;;;;;;5.07;3.50;;;18.50;42.40;;;;;;5155321;27;20431;-70
2022/04/23 11:41:11;;;;;;;3.83;3.45;;;18.50;42.40;;;;;;5168255;27;20042;-68
2022/04/23 11:43:38;;;;;;;3.88;3.58;;;18.50;42.40;;;;;;5161370;27;20034;-70
2022/04/23 11:46:06;;;;;;;3.22;2.92;;;18.50;42.50;;;;;;5173473;27;20041;-69
2022/04/23 11:48:43;;;;;;;3.92;3.53;;;18.50;42.40;;;;;;5173523;27;20034;-69
2022/04/23 11:51:12;;;;;;;4.75;4.25;;;18.50;42.40;;;;;;5175546;27;20041;-69
2022/04/23 11:53:58;;;;;;;4.13;3.45;;;18.50;42.40;;;;;;5189345;27;20116;-70
2022/04/23 11:56:28;;;;;;;3.83;3.53;;;18.50;42.40;;;;;;5175994;27;20370;-64
2022/04/23 11:58:57;;;;;;;4.07;3.78;;;18.50;42.40;;;;;;5178921;27;20156;-69
2022/04/23 12:01:24;;;;;;;5.15;3.35;;;18.50;42.40;;;;;;5173179;27;20045;-68
2022/04/23 12:03:51;;;;;;;6.15;3.97;;;18.50;42.30;;;;;;5173446;27;20488;-69
2022/04/23 12:06:17;;;;;;;3.42;3.13;;;18.50;42.30;;;;;;5173378;27;20073;-70
2022/04/23 12:08:43;;;;;;;4.60;3.45;;;18.50;42.20;;;;;;5173158;27;20069;-64
2022/04/23 12:11:27;;;;;;;4.43;3.88;;;18.50;42.20;;;;;;5181931;27;20038;-68
2022/04/23 12:13:53;;;;;;;3.75;2.90;;;18.50;42.20;;;;;;5194015;27;20037;-69
2022/04/23 12:16:39;;;;;;;3.83;3.30;;;18.50;42.20;;;;;;5212798;27;20040;-69
2022/04/23 12:21:59;;;;;;;4.43;3.35;;;18.60;42.10;;;;;;5146285;27;20587;-63
2022/04/23 12:24:33;;;;;;;;;;;18.50;41.90;;;;;;5129896;28;20040;-69
2022/04/23 12:27:04;;;;;;;3.67;3.20;;;18.50;42.00;;;;;;5128820;27;19919;-68
2022/04/23 12:40:50;;;;;;;3.80;2.40;;;18.60;41.70;;;;;;5129855;28;20043;-70
2022/04/23 12:43:19;;;;;;;;;;;18.60;41.60;;;;;;5129376;28;20036;-69
2022/04/23 12:45:44;;;;;;;5.78;3.25;;;18.60;41.50;;;;;;5129789;27;19915;-69
2022/04/23 12:48:12;;;;;;;3.10;2.50;;;18.60;41.60;;;;;;5128819;28;20386;-69
2022/04/23 12:50:38;;;;;;;3.03;2.42;;;18.60;41.40;;;;;;5128608;28;20051;-69
2022/04/23 12:53:04;;;;;;;2.55;2.33;;;18.60;41.30;;;;;;5145663;27;20096;-70
2022/04/23 12:55:37;;;;;;;4.90;3.03;;;18.60;41.10;;;;;;5129754;27;20043;-69
2022/04/23 13:00:46;;;;;;;2.58;2.08;;;18.60;41.00;;;;;;5144825;27;20132;-70
2022/04/23 13:03:45;;;;;;;2.70;2.50;;;18.60;41.80;;;;;;5128932;28;20047;-69
2022/04/23 13:06:00;;;;;;;2.72;2.35;;;18.60;40.80;;;;;;5128913;28;20051;-66
2022/04/23 13:08:56;;;;;;;2.53;2.33;;;18.60;40.70;;;;;;5128844;28;20046;-68
2022/04/23 13:11:42;;;;;;;2.20;2.00;;;18.60;40.60;;;;;;5128935;28;20437;-69
2022/04/23 13:14:00;;;;;;;3.38;2.38;;;18.60;40.50;;;;;;5128568;28;20517;-65
2022/04/23 13:16:28;;;;;;;2.78;2.35;;;18.70;40.40;;;;;;5130075;28;20077;-69
2022/04/23 13:18:57;;;;;;;3.60;2.22;;;18.70;40.20;;;;;;5128517;28;20471;-69
2022/04/23 13:21:24;;;;;;;3.17;2.15;;;18.70;40.10;;;;;;5128616;28;20399;-69
2022/04/23 13:23:51;;;;;;;2.42;1.85;;;18.70;40.00;;;;;;5129847;27;20046;-69
2022/04/23 13:26:18;;;;;;;2.10;1.88;;;18.70;40.00;;;;;;5128631;28;20297;-69
2022/04/23 13:28:44;;;;;;;2.33;2.13;;;18.70;39.90;;;;;;5128540;28;20121;-69
2022/04/23 13:31:10;;;;;;;2.58;1.60;;;18.70;39.80;;;;;;5128483;28;20277;-69
2022/04/23 13:33:36;;;;;;;2.75;2.33;;;18.70;39.70;;;;;;5128432;28;20114;-68
2022/04/23 13:36:02;;;;;;;3.40;2.10;;;18.70;39.60;;;;;;5128311;28;20126;-69
2022/04/23 13:38:28;;;;;;;3.17;2.20;;;18.70;39.50;;;;;;5128413;28;20551;-69
2022/04/23 13:40:53;;;;;;;1.73;1.58;;;18.70;39.30;;;;;;5128274;28;20035;-70
2022/04/23 13:43:19;;;;;;;2.15;1.65;;;18.70;39.20;;;;;;5128252;28;20036;-69
2022/04/23 13:45:45;;;;;;;3.88;1.80;;;18.70;39.30;;;;;;5128404;28;20066;-69
2022/04/23 13:48:11;;;;;;;3.78;1.80;;;18.80;39.40;;;;;;5128126;28;20050;-69
2022/04/23 13:50:37;;;;;;;1.67;1.58;;;18.70;39.00;;;;;;5129440;27;20036;-69
2022/04/23 13:53:03;;;;;;;2.00;1.73;;;18.80;38.80;;;;;;5129314;27;20039;-69
2022/04/23 13:55:35;;;;;;;2.03;1.50;;;18.80;38.70;;;;;;5129260;27;20039;-69
2022/04/23 13:58:00;;;;;;;2.88;1.52;;;18.80;38.60;;;;;;5127893;28;20043;-70
2022/04/23 14:00:26;;;;;;;2.33;1.55;;;18.80;38.50;;;;;;5127577;28;20043;-69
2022/04/23 14:11:09;;;;;;;3.05;1.67;;;18.80;38.40;;;;;;5118710;28;20047;-69
2022/04/23 14:13:34;;;;;;;3.25;1.80;;;18.80;38.30;;;;;;5115716;28;20046;-66
2022/04/23 14:16:00;;;;;;;2.33;1.70;;;18.80;38.20;;;;;;5113869;28;20079;-69
2022/04/23 14:18:26;;;;;;;1.88;1.60;;;18.80;38.10;;;;;;5113850;28;20066;-70
2022/04/23 14:20:52;;;;;;;3.13;1.98;;;18.80;37.90;;;;;;5114089;28;20044;-69